createdAt,value
2023-03-12T00:00:01.206Z,48.60
2023-03-12T00:02:31.329Z,46.90
2023-03-12T00:05:04.216Z,59.70
2023-03-12T00:07:36.429Z,50.00
2023-03-12T00:10:06.926Z,59.70
2023-03-12T00:12:37.163Z,51.00
2023-03-12T00:15:09.359Z,44.50
2023-03-12T00:17:40.348Z,50.60
2023-03-12T00:20:19.996Z,53.70
2023-03-12T00:22:50.295Z,58.60
2023-03-12T00:25:21.249Z,64.50
2023-03-12T00:27:51.568Z,82.10
2023-03-12T00:30:21.922Z,59.10
2023-03-12T00:32:52.081Z,64.40
2023-03-12T00:35:26.251Z,73.70
2023-03-12T00:37:56.392Z,71.20
2023-03-12T00:40:26.518Z,72.80
2023-03-12T00:42:56.763Z,64.80
2023-03-12T00:45:26.868Z,73.10
2023-03-12T00:47:56.982Z,53.00
2023-03-12T00:50:29.799Z,59.50
2023-03-12T00:53:00.090Z,92.40
2023-03-12T00:55:31.949Z,51.50
2023-03-12T00:58:02.044Z,53.10
2023-03-12T01:00:32.738Z,47.70
2023-03-12T01:03:02.948Z,49.90
2023-03-12T01:05:40.768Z,59.90
2023-03-12T01:08:14.902Z,57.40
2023-03-12T01:10:46.433Z,41.40
2023-03-12T01:13:18.998Z,33.00
2023-03-12T01:15:49.339Z,38.50
2023-03-12T01:18:19.482Z,37.10
2023-03-12T01:20:54.378Z,40.20
2023-03-12T01:23:24.478Z,53.60
2023-03-12T01:25:55.633Z,25.60
2023-03-12T01:28:26.747Z,31.50
2023-03-12T01:30:59.263Z,39.30
2023-03-12T01:33:29.385Z,48.60
2023-03-12T01:36:02.171Z,25.00
2023-03-12T01:38:34.882Z,28.10
2023-03-12T01:41:04.978Z,39.80
2023-03-12T01:43:39.162Z,38.50
2023-03-12T01:46:32.826Z,41.60
2023-03-12T01:49:12.003Z,47.90
2023-03-12T01:51:52.671Z,51.50
2023-03-12T01:54:28.881Z,57.30
2023-03-12T01:57:00.645Z,59.80
2023-03-12T01:59:36.572Z,51.50
2023-03-12T02:02:09.623Z,54.40
2023-03-12T02:04:41.709Z,78.60
2023-03-12T02:07:18.137Z,62.30
2023-03-12T02:09:54.545Z,63.10
2023-03-12T02:12:24.670Z,65.10
2023-03-12T02:14:55.223Z,49.60
2023-03-12T02:17:25.606Z,50.60
2023-03-12T02:20:11.035Z,38.10
2023-03-12T02:22:50.377Z,48.30
2023-03-12T02:25:41.133Z,50.70
2023-03-12T02:28:16.512Z,43.40
2023-03-12T02:30:55.838Z,42.60
2023-03-12T02:33:27.207Z,37.20
2023-03-12T02:35:58.606Z,42.70
2023-03-12T02:38:48.511Z,41.80
2023-03-12T02:41:26.322Z,37.40
2023-03-12T02:44:05.365Z,40.90
2023-03-12T02:46:42.463Z,47.90
2023-03-12T02:49:14.712Z,49.60
2023-03-12T02:51:49.649Z,39.70
2023-03-12T02:54:23.293Z,29.40
2023-03-12T02:56:58.344Z,20.70
2023-03-12T02:59:29.534Z,29.40
2023-03-12T03:02:02.400Z,29.80
2023-03-12T03:04:34.852Z,42.50
2023-03-12T03:07:05.187Z,21.00
2023-03-12T03:09:35.291Z,23.80
2023-03-12T03:12:08.744Z,30.70
2023-03-12T03:14:38.842Z,29.90
2023-03-12T03:17:09.230Z,32.90
2023-03-12T03:19:39.427Z,36.40
2023-03-12T03:22:09.864Z,39.50
2023-03-12T03:24:40.004Z,49.00
2023-03-12T03:27:12.858Z,45.50
2023-03-12T03:29:42.971Z,34.70
2023-03-12T03:32:13.103Z,42.70
2023-03-12T03:34:43.450Z,40.60
2023-03-12T03:37:13.798Z,54.60
2023-03-12T03:39:43.890Z,45.90
2023-03-12T03:42:19.592Z,45.80
2023-03-12T03:44:49.739Z,44.00
2023-03-12T03:47:20.022Z,54.30
2023-03-12T03:49:50.471Z,39.70
2023-03-12T03:52:20.570Z,37.40
2023-03-12T03:54:50.725Z,47.00
2023-03-12T03:57:23.415Z,56.60
2023-03-12T03:59:53.775Z,57.50
2023-03-12T04:02:24.645Z,51.60
2023-03-12T04:04:55.136Z,64.30
2023-03-12T04:07:25.389Z,64.40
2023-03-12T04:09:55.587Z,73.10
2023-03-12T04:12:28.764Z,62.30
2023-03-12T04:15:01.539Z,70.60
2023-03-12T04:17:31.753Z,76.10
2023-03-12T04:20:01.902Z,90.30
2023-03-12T04:22:32.024Z,87.00
2023-03-12T04:25:02.216Z,90.30
2023-03-12T04:27:35.048Z,92.90
2023-03-12T04:30:05.500Z,91.90
2023-03-12T04:32:38.906Z,99.90
2023-03-12T04:35:09.596Z,99.90
2023-03-12T04:37:39.761Z,99.90
2023-03-12T04:40:14.057Z,99.90
2023-03-12T04:42:46.807Z,99.90
2023-03-12T04:45:17.117Z,99.90
2023-03-12T04:47:47.262Z,99.90
2023-03-12T04:50:17.567Z,99.90
2023-03-12T04:52:47.688Z,99.90
2023-03-12T04:55:17.808Z,99.90
2023-03-12T04:57:50.546Z,99.90
2023-03-12T05:00:24.124Z,99.90
2023-03-12T05:02:54.930Z,99.90
2023-03-12T05:05:27.991Z,99.90
2023-03-12T05:07:58.132Z,99.90
2023-03-12T05:10:28.549Z,99.90
2023-03-12T05:13:01.503Z,99.90
2023-03-12T05:15:31.626Z,99.90
2023-03-12T05:18:01.741Z,99.90
2023-03-12T05:20:31.825Z,99.90
2023-03-12T05:23:01.957Z,99.90
2023-03-12T05:25:32.053Z,99.90
2023-03-12T05:28:05.168Z,99.90
2023-03-12T05:30:35.284Z,99.90
2023-03-12T05:33:05.461Z,99.90
2023-03-12T05:35:37.932Z,99.90
2023-03-12T05:38:08.165Z,99.90
2023-03-12T05:40:38.251Z,99.90
2023-03-12T05:43:11.013Z,99.90
2023-03-12T05:45:41.060Z,99.90
2023-03-12T05:48:13.574Z,99.90
2023-03-12T05:50:43.982Z,99.90
2023-03-12T05:53:15.161Z,99.90
2023-03-12T05:55:45.292Z,99.90
2023-03-12T05:58:18.391Z,99.90
2023-03-12T06:00:51.369Z,99.90
2023-03-12T06:03:22.892Z,99.90
2023-03-12T06:05:55.186Z,99.90
2023-03-12T06:08:25.432Z,99.90
2023-03-12T06:10:56.735Z,99.90
2023-03-12T06:13:34.025Z,99.90
2023-03-12T06:16:10.207Z,99.90
2023-03-12T06:18:44.101Z,99.90
2023-03-12T06:21:17.420Z,99.90
2023-03-12T06:23:48.553Z,99.90
2023-03-12T06:26:19.970Z,99.90
2023-03-12T06:28:54.249Z,99.90
2023-03-12T06:31:25.828Z,99.90
2023-03-12T06:33:56.131Z,99.90
2023-03-12T06:36:26.421Z,99.90
2023-03-12T06:38:57.334Z,99.90
2023-03-12T06:41:27.573Z,99.90
2023-03-12T06:44:02.010Z,99.90
2023-03-12T06:46:32.342Z,99.90
2023-03-12T06:49:05.034Z,99.90
2023-03-12T06:51:35.213Z,99.90
2023-03-12T06:54:05.895Z,99.90
2023-03-12T06:56:36.365Z,99.90
2023-03-12T06:59:09.182Z,99.90
2023-03-12T07:01:39.258Z,99.90
2023-03-12T07:04:09.419Z,99.90
2023-03-12T07:06:42.255Z,99.90
2023-03-12T07:09:12.837Z,99.90
2023-03-12T07:11:44.224Z,99.90
2023-03-12T07:14:16.944Z,99.90
2023-03-12T07:16:47.078Z,99.90
2023-03-12T07:19:19.507Z,99.90
2023-03-12T07:21:49.782Z,99.90
2023-03-12T07:24:19.927Z,99.90
2023-03-12T07:26:50.086Z,99.90
2023-03-12T07:29:24.148Z,99.90
2023-03-12T07:31:54.299Z,99.90
2023-03-12T07:34:24.549Z,99.90
2023-03-12T07:36:55.057Z,99.90
2023-03-12T07:39:25.373Z,99.90
2023-03-12T07:41:59.129Z,99.90
2023-03-12T07:44:32.320Z,99.90
2023-03-12T07:47:16.464Z,99.90
2023-03-12T07:49:54.446Z,99.90
2023-03-12T07:52:24.826Z,99.90
2023-03-12T07:54:58.759Z,99.90
2023-03-12T07:57:29.133Z,99.90
2023-03-12T08:00:01.975Z,99.90
2023-03-12T08:02:32.249Z,99.90
2023-03-12T08:05:02.517Z,99.90
2023-03-12T08:07:35.353Z,99.90
2023-03-12T08:10:11.281Z,99.90
2023-03-12T08:12:41.747Z,99.90
2023-03-12T08:15:18.185Z,99.90
2023-03-12T08:17:49.111Z,99.90
2023-03-12T08:20:19.584Z,99.90
2023-03-12T08:22:49.685Z,99.90
2023-03-12T08:25:25.085Z,99.90
2023-03-12T08:27:55.446Z,99.90
2023-03-12T08:30:30.220Z,99.90
2023-03-12T08:33:00.605Z,99.90
2023-03-12T08:35:31.780Z,99.90
2023-03-12T08:38:01.907Z,99.90
2023-03-12T08:40:32.237Z,99.90
2023-03-12T08:43:02.354Z,99.90
2023-03-12T08:45:37.265Z,99.90
2023-03-12T08:48:08.805Z,99.90
2023-03-12T08:50:39.119Z,99.90
2023-03-12T08:53:09.181Z,99.90
2023-03-12T08:55:42.291Z,99.90
2023-03-12T08:58:12.505Z,99.90
2023-03-12T09:00:45.236Z,99.90
2023-03-12T09:03:15.381Z,99.90
2023-03-12T09:05:49.141Z,99.90
2023-03-12T09:08:20.897Z,99.90
2023-03-12T09:10:53.821Z,99.90
2023-03-12T09:13:23.927Z,99.90
2023-03-12T09:16:01.663Z,99.90
2023-03-12T09:18:33.148Z,99.90
2023-03-12T09:21:03.957Z,99.90
2023-03-12T09:23:35.806Z,99.90
2023-03-12T09:26:06.122Z,99.90
2023-03-12T09:28:36.397Z,99.90
2023-03-12T09:31:10.113Z,99.90
2023-03-12T09:33:40.253Z,99.90
2023-03-12T09:36:10.961Z,99.90
2023-03-12T09:38:41.199Z,99.90
2023-03-12T09:41:22.406Z,99.90
2023-03-12T09:44:03.724Z,99.90
2023-03-12T09:46:44.111Z,99.90
2023-03-12T09:49:25.753Z,99.90
2023-03-12T09:52:01.545Z,99.90
2023-03-12T09:54:41.283Z,99.90
2023-03-12T09:57:19.508Z,99.90
2023-03-12T09:59:49.687Z,99.90
2023-03-12T10:02:54.431Z,99.90
2023-03-12T10:05:38.815Z,99.90
2023-03-12T10:08:23.881Z,99.90
2023-03-12T10:11:01.678Z,99.90
2023-03-12T10:14:05.786Z,99.90
2023-03-12T10:16:57.193Z,99.90
2023-03-12T10:19:55.861Z,99.90
2023-03-12T10:22:50.365Z,99.90
2023-03-12T10:25:30.557Z,99.90
2023-03-12T10:28:16.426Z,99.90
2023-03-12T10:30:56.042Z,99.90
2023-03-12T10:33:45.711Z,99.90
2023-03-12T10:36:27.884Z,99.90
2023-03-12T10:39:00.960Z,99.90
2023-03-12T10:41:35.119Z,99.90
2023-03-12T10:44:11.834Z,99.90
2023-03-12T10:47:09.307Z,99.90
2023-03-12T10:49:40.975Z,99.90
2023-03-12T10:52:20.618Z,99.90
2023-03-12T10:54:53.636Z,99.90
2023-03-12T10:57:24.134Z,99.90
2023-03-12T10:59:54.309Z,99.90
2023-03-12T11:02:38.882Z,99.90
2023-03-12T11:05:24.936Z,99.90
2023-03-12T11:07:57.790Z,99.90
2023-03-12T11:10:40.237Z,99.90
2023-03-12T11:13:27.569Z,99.90
2023-03-12T11:16:00.357Z,99.90
2023-03-12T11:18:37.452Z,99.90
2023-03-12T11:21:26.802Z,99.90
2023-03-12T11:24:18.914Z,99.90
2023-03-12T11:26:57.162Z,99.90
2023-03-12T11:29:39.858Z,99.90
2023-03-12T11:32:20.158Z,99.90
2023-03-12T11:34:51.373Z,99.90
2023-03-12T11:37:34.130Z,99.90
2023-03-12T11:40:22.141Z,99.90
2023-03-12T11:43:17.703Z,99.90
2023-03-12T11:46:06.822Z,99.90
2023-03-12T11:48:53.806Z,99.90
2023-03-12T11:51:41.805Z,99.90
2023-03-12T11:54:49.591Z,99.90
2023-03-12T11:57:36.381Z,99.90
2023-03-12T12:00:18.438Z,99.90
2023-03-12T12:03:29.745Z,99.90
2023-03-12T12:06:09.662Z,99.90
2023-03-12T12:09:10.960Z,99.90
2023-03-12T12:12:00.280Z,99.90
2023-03-12T12:14:59.386Z,99.90
2023-03-12T12:17:50.068Z,99.90
2023-03-12T12:20:34.611Z,99.90
2023-03-12T12:23:25.692Z,99.90
2023-03-12T12:26:13.085Z,99.90
2023-03-12T12:29:15.192Z,99.90
2023-03-12T12:31:57.151Z,99.90
2023-03-12T12:35:07.713Z,99.90
2023-03-12T12:37:53.250Z,99.90
2023-03-12T12:40:29.971Z,99.90
2023-03-12T12:43:43.722Z,99.90
2023-03-12T12:46:21.301Z,99.90
2023-03-12T12:48:58.969Z,95.90
2023-03-12T12:51:36.141Z,76.40
2023-03-12T12:54:14.107Z,74.00
2023-03-12T12:56:51.467Z,51.70
2023-03-12T12:59:36.414Z,85.10
2023-03-12T13:02:17.335Z,88.70
2023-03-12T13:04:51.781Z,96.70
2023-03-12T13:07:39.437Z,99.90
2023-03-12T13:10:57.152Z,99.90
2023-03-12T13:13:32.851Z,99.90
2023-03-12T13:16:35.432Z,99.90
2023-03-12T13:19:26.846Z,99.90
2023-03-12T13:22:47.552Z,99.90
2023-03-12T13:26:10.166Z,99.90
2023-03-12T13:29:15.716Z,99.90
2023-03-12T13:31:53.832Z,99.90
2023-03-12T13:34:49.141Z,99.90
2023-03-12T13:38:03.700Z,99.90
2023-03-12T13:41:03.222Z,99.90
2023-03-12T13:43:56.278Z,99.90
2023-03-12T13:46:43.880Z,99.90
2023-03-12T13:49:23.085Z,99.90
2023-03-12T13:52:04.724Z,99.90
2023-03-12T13:54:47.608Z,99.90
2023-03-12T13:57:35.846Z,99.90
2023-03-12T14:00:22.044Z,99.90
2023-03-12T14:03:01.067Z,99.90
2023-03-12T14:05:33.883Z,99.90
2023-03-12T14:08:41.798Z,99.90
2023-03-12T14:11:33.492Z,99.90
2023-03-12T14:14:47.064Z,99.90
2023-03-12T14:17:24.181Z,99.90
2023-03-12T14:20:05.357Z,99.90
2023-03-12T14:22:41.224Z,99.90
2023-03-12T14:25:20.217Z,99.90
2023-03-12T14:27:53.577Z,99.90
2023-03-12T14:30:28.387Z,99.90
2023-03-12T14:33:02.372Z,99.90
2023-03-12T14:35:41.325Z,99.90
2023-03-12T14:38:20.610Z,99.90
2023-03-12T14:41:03.439Z,99.90
2023-03-12T14:43:38.130Z,99.90
2023-03-12T14:46:17.001Z,99.90
2023-03-12T14:48:52.538Z,99.90
2023-03-12T14:51:26.169Z,99.90
2023-03-12T14:53:57.678Z,96.40
2023-03-12T14:56:33.393Z,93.10
2023-03-12T14:59:34.363Z,92.20
2023-03-12T15:02:16.130Z,92.10
2023-03-12T15:04:47.355Z,99.90
2023-03-12T15:07:24.654Z,99.90
2023-03-12T15:09:56.017Z,99.90
2023-03-12T15:12:29.587Z,99.90
2023-03-12T15:15:10.608Z,99.90
2023-03-12T15:17:41.338Z,99.90
2023-03-12T15:20:18.903Z,99.90
2023-03-12T15:22:49.826Z,99.90
2023-03-12T15:25:29.091Z,99.90
2023-03-12T15:28:18.423Z,99.90
2023-03-12T15:31:08.946Z,99.90
2023-03-12T15:33:39.397Z,99.90
2023-03-12T15:36:27.521Z,99.90
2023-03-12T15:39:05.626Z,99.90
2023-03-12T15:41:47.881Z,99.90
2023-03-12T15:44:23.712Z,99.90
2023-03-12T15:47:05.783Z,99.90
2023-03-12T15:49:40.163Z,99.90
2023-03-12T15:52:42.844Z,99.90
2023-03-12T15:55:27.856Z,99.90
2023-03-12T15:58:00.105Z,99.90
2023-03-12T16:00:32.552Z,99.90
2023-03-12T16:03:08.816Z,99.90
2023-03-12T16:05:42.471Z,99.90
2023-03-12T16:08:21.109Z,99.90
2023-03-12T16:10:53.142Z,99.90
2023-03-12T16:13:31.164Z,99.90
2023-03-12T16:16:02.123Z,99.90
2023-03-12T16:18:35.363Z,99.90
2023-03-12T16:21:05.457Z,91.60
2023-03-12T16:23:35.985Z,97.70
2023-03-12T16:26:11.519Z,98.60
2023-03-12T16:28:41.817Z,96.10
2023-03-12T16:31:15.717Z,99.40
2023-03-12T16:33:50.943Z,99.90
2023-03-12T16:36:21.886Z,99.90
2023-03-12T16:38:52.069Z,99.90
2023-03-12T16:41:23.088Z,99.90
2023-03-12T16:43:58.870Z,99.90
2023-03-12T16:46:33.456Z,99.90
2023-03-12T16:49:06.519Z,99.90
2023-03-12T16:51:36.634Z,99.90
2023-03-12T16:54:11.813Z,98.50
2023-03-12T16:56:47.943Z,99.10
2023-03-12T16:59:27.778Z,99.80
2023-03-12T17:02:00.887Z,98.50
2023-03-12T17:04:33.995Z,97.60
2023-03-12T17:07:04.098Z,99.90
2023-03-12T17:09:35.784Z,99.90
2023-03-12T17:12:09.622Z,99.90
2023-03-12T17:14:40.359Z,99.90
2023-03-12T17:17:11.721Z,99.90
2023-03-12T17:19:44.502Z,99.90
2023-03-12T17:22:14.667Z,99.90
2023-03-12T17:24:44.939Z,99.90
2023-03-12T17:27:17.585Z,99.90
2023-03-12T17:29:47.798Z,99.90
2023-03-12T17:32:17.900Z,99.90
2023-03-12T17:34:50.759Z,99.90
2023-03-12T17:37:20.856Z,99.90
2023-03-12T17:39:51.772Z,99.90
2023-03-12T17:42:21.888Z,99.90
2023-03-12T17:44:52.208Z,99.90
2023-03-12T17:47:24.813Z,99.90
2023-03-12T17:49:57.867Z,99.90
2023-03-12T17:52:30.670Z,99.90
2023-03-12T17:55:01.272Z,99.90
2023-03-12T17:57:39.020Z,99.90
2023-03-12T18:00:13.772Z,99.90
2023-03-12T18:02:45.130Z,99.90
2023-03-12T18:05:19.065Z,99.90
2023-03-12T18:07:51.397Z,99.90
2023-03-12T18:10:22.070Z,99.90
2023-03-12T18:12:52.166Z,99.90
2023-03-12T18:15:22.474Z,99.90
2023-03-12T18:17:56.445Z,99.90
2023-03-12T18:20:38.719Z,99.90
2023-03-12T18:23:09.559Z,99.90
2023-03-12T18:25:40.751Z,99.90
2023-03-12T18:28:11.024Z,99.90
2023-03-12T18:30:41.264Z,99.90
2023-03-12T18:33:11.570Z,99.90
2023-03-12T18:35:46.031Z,99.90
2023-03-12T18:38:16.455Z,99.90
2023-03-12T18:40:46.566Z,99.90
2023-03-12T18:43:16.740Z,99.90
2023-03-12T18:45:47.128Z,99.90
2023-03-12T18:48:17.237Z,99.90
2023-03-12T18:50:49.973Z,99.90
2023-03-12T18:53:20.358Z,99.90
2023-03-12T18:55:55.787Z,99.90
2023-03-12T18:58:30.902Z,99.90
2023-03-12T19:01:02.070Z,99.90
2023-03-12T19:03:36.414Z,99.90
2023-03-12T19:06:13.330Z,99.90
2023-03-12T19:08:43.844Z,99.90
2023-03-12T19:11:17.384Z,99.90
2023-03-12T19:13:49.795Z,99.90
2023-03-12T19:16:21.890Z,99.90
2023-03-12T19:18:56.892Z,99.90
2023-03-12T19:21:31.456Z,99.90
2023-03-12T19:24:02.210Z,99.90
2023-03-12T19:26:32.543Z,99.90
2023-03-12T19:29:02.819Z,99.90
2023-03-12T19:31:33.077Z,99.90
2023-03-12T19:34:03.211Z,99.90
2023-03-12T19:36:36.068Z,99.90
2023-03-12T19:39:15.187Z,99.90
2023-03-12T19:41:51.129Z,99.90
2023-03-12T19:44:21.244Z,99.90
2023-03-12T19:46:51.375Z,99.90
2023-03-12T19:49:21.644Z,99.90
2023-03-12T19:51:54.378Z,99.90
2023-03-12T19:54:24.506Z,99.90
2023-03-12T19:56:54.732Z,99.90
2023-03-12T19:59:24.833Z,99.90
2023-03-12T20:01:55.035Z,99.90
2023-03-12T20:04:25.356Z,99.90
2023-03-12T20:06:58.118Z,99.90
2023-03-12T20:09:28.331Z,99.90
2023-03-12T20:11:58.442Z,99.90
2023-03-12T20:14:28.633Z,99.90
2023-03-12T20:16:58.831Z,99.90
2023-03-12T20:19:29.026Z,99.90
2023-03-12T20:22:01.737Z,99.90
2023-03-12T20:24:31.946Z,99.90
2023-03-12T20:27:02.207Z,99.90
2023-03-12T20:29:32.430Z,99.90
2023-03-12T20:32:02.764Z,99.90
2023-03-12T20:34:32.938Z,99.90
2023-03-12T20:37:05.607Z,99.90
2023-03-12T20:39:35.757Z,99.90
2023-03-12T20:42:05.932Z,99.90
2023-03-12T20:44:36.132Z,99.90
2023-03-12T20:47:06.247Z,99.90
2023-03-12T20:49:36.400Z,99.90
2023-03-12T20:52:09.217Z,99.90
2023-03-12T20:54:39.360Z,99.90
2023-03-12T20:57:09.497Z,99.90
2023-03-12T20:59:41.735Z,99.90
2023-03-12T21:02:16.598Z,99.90
2023-03-12T21:04:46.959Z,99.90
2023-03-12T21:07:19.681Z,99.90
2023-03-12T21:09:50.003Z,99.90
2023-03-12T21:12:20.153Z,99.90
2023-03-12T21:14:50.792Z,99.90
2023-03-12T21:17:20.948Z,99.90
2023-03-12T21:19:51.086Z,99.90
2023-03-12T21:22:23.844Z,99.90
2023-03-12T21:24:54.034Z,99.90
2023-03-12T21:27:24.186Z,99.90
2023-03-12T21:29:57.828Z,99.90
2023-03-12T21:32:27.971Z,99.90
2023-03-12T21:34:58.357Z,99.90
2023-03-12T21:37:31.711Z,99.90
2023-03-12T21:40:01.929Z,99.90
2023-03-12T21:42:33.249Z,99.90
2023-03-12T21:45:03.551Z,99.90
2023-03-12T21:47:33.739Z,99.90
2023-03-12T21:50:03.873Z,99.90
2023-03-12T21:52:43.045Z,99.90
2023-03-12T21:55:15.265Z,99.90
2023-03-12T21:57:45.711Z,99.90
2023-03-12T22:00:17.375Z,99.90
2023-03-12T22:02:50.576Z,99.90
2023-03-12T22:05:21.014Z,99.90
2023-03-12T22:07:53.764Z,99.90
2023-03-12T22:10:23.984Z,99.90
2023-03-12T22:12:54.068Z,99.90
2023-03-12T22:15:24.248Z,99.90
2023-03-12T22:17:54.328Z,99.90
2023-03-12T22:20:24.454Z,99.90
2023-03-12T22:22:57.099Z,99.90
2023-03-12T22:25:27.254Z,99.90
2023-03-12T22:27:57.389Z,99.90
2023-03-12T22:30:28.828Z,99.90
2023-03-12T22:32:59.036Z,99.90
2023-03-12T22:35:29.271Z,99.90
2023-03-12T22:38:02.126Z,99.90
2023-03-12T22:40:32.277Z,99.90
2023-03-12T22:43:02.386Z,99.90
2023-03-12T22:45:32.571Z,99.90
2023-03-12T22:48:02.838Z,99.90
2023-03-12T22:50:33.353Z,99.90
2023-03-12T22:53:06.204Z,99.90
2023-03-12T22:55:36.401Z,99.90
2023-03-12T22:58:06.486Z,99.90
2023-03-12T23:00:36.706Z,99.90
2023-03-12T23:03:07.042Z,99.90
2023-03-12T23:05:38.160Z,99.90
2023-03-12T23:08:13.255Z,99.90
2023-03-12T23:10:43.473Z,99.90
2023-03-12T23:13:13.611Z,99.90
2023-03-12T23:15:43.780Z,99.90
2023-03-12T23:18:14.268Z,99.90
2023-03-12T23:20:44.437Z,99.90
2023-03-12T23:23:18.561Z,99.90
2023-03-12T23:25:56.171Z,99.90
2023-03-12T23:28:27.421Z,99.90
2023-03-12T23:31:00.270Z,99.90
2023-03-12T23:33:33.865Z,99.90
2023-03-12T23:36:08.227Z,99.90
2023-03-12T23:38:41.472Z,99.90
2023-03-12T23:41:16.164Z,99.90
2023-03-12T23:43:49.942Z,99.90
2023-03-12T23:46:21.683Z,99.90
2023-03-12T23:48:55.030Z,99.90
2023-03-12T23:51:28.100Z,99.90
2023-03-12T23:54:07.472Z,99.90
2023-03-12T23:56:40.186Z,99.90
2023-03-12T23:59:15.696Z,99.90
